Time,TemperatureF,DewpointF,PressureIn,WindDirection,WindDirectionDegrees,WindSpeedMPH,WindSpeedGustMPH,Humidity,HourlyPrecipIn,Conditions,Clouds,dailyrainin,SoftwareType,DateUTC
2013-01-16 00:00:00,42.4,10.8,30.44,East,79,2.0,2.0,27,0.00,,---,0.00,VWS V14.00,2013-01-16 08:00:00,
2013-01-16 00:05:00,42.5,10.9,30.43,East,79,2.0,5.0,27,0.00,,---,0.00,VWS V14.00,2013-01-16 08:05:00,
2013-01-16 00:10:00,42.8,11.1,30.43,East,79,2.0,7.0,27,0.00,,---,0.00,VWS V14.00,2013-01-16 08:10:00,
2013-01-16 00:15:00,43.4,11.7,30.43,East,79,0.0,7.0,27,0.00,,---,0.00,VWS V14.00,2013-01-16 08:15:00,
2013-01-16 00:20:00,43.5,11.8,30.42,East,79,1.0,6.0,27,0.00,,---,0.00,VWS V14.00,2013-01-16 08:20:00,
2013-01-16 00:25:00,43.6,11.8,30.42,East,79,2.0,6.0,27,0.00,,---,0.00,VWS V14.00,2013-01-16 08:25:00,
2013-01-16 00:30:00,43.8,12.8,30.42,East,79,0.0,6.0,28,0.00,,---,0.00,VWS V14.00,2013-01-16 08:30:00,
2013-01-16 00:35:00,43.2,11.5,30.42,ESE,119,2.0,11.0,27,0.00,,---,0.00,VWS V14.00,2013-01-16 08:35:00,
2013-01-16 00:40:00,42.7,11.1,30.42,ESE,115,5.0,7.0,27,0.00,,---,0.00,VWS V14.00,2013-01-16 08:40:00,
2013-01-16 00:45:00,42.4,10.8,30.41,ESE,112,3.0,4.0,27,0.00,,---,0.00,VWS V14.00,2013-01-16 08:45:00,
2013-01-16 00:50:00,44.1,13.9,30.41,ESE,112,3.0,4.0,29,0.00,,---,0.00,VWS V14.00,2013-01-16 08:50:00,
2013-01-16 00:55:00,45.1,12.3,30.41,ESE,112,8.0,8.0,26,0.00,,---,0.00,VWS V14.00,2013-01-16 08:55:00,
2013-01-16 01:00:00,44.0,12.2,30.41,East,82,2.0,15.0,27,0.00,,---,0.00,VWS V14.00,2013-01-16 09:00:00,
2013-01-16 01:05:00,43.7,12.8,30.41,East,82,2.0,7.0,28,0.00,,---,0.00,VWS V14.00,2013-01-16 09:05:00,
2013-01-16 01:10:00,43.8,12.8,30.41,East,82,2.0,6.0,28,0.00,,---,0.00,VWS V14.00,2013-01-16 09:10:00,
2013-01-16 01:15:00,44.0,13.0,30.41,East,82,1.0,2.0,28,0.00,,---,0.00,VWS V14.00,2013-01-16 09:15:00,
2013-01-16 01:20:00,43.3,12.4,30.41,East,82,2.0,8.0,28,0.00,,---,0.00,VWS V14.00,2013-01-16 09:20:00,
2013-01-16 01:25:00,43.1,12.2,30.41,East,82,3.0,5.0,28,0.00,,---,0.00,VWS V14.00,2013-01-16 09:25:00,
2013-01-16 01:30:00,43.4,12.5,30.41,East,82,5.0,6.0,28,0.00,,---,0.00,VWS V14.00,2013-01-16 09:30:00,
2013-01-16 01:35:00,43.3,12.4,30.41,East,82,5.0,8.0,28,0.00,,---,0.00,VWS V14.00,2013-01-16 09:35:00,
2013-01-16 01:40:00,43.1,13.8,30.41,East,82,3.0,5.0,30,0.00,,---,0.00,VWS V14.00,2013-01-16 09:40:00,
2013-01-16 01:45:00,43.2,13.9,30.41,East,82,2.0,6.0,30,0.00,,---,0.00,VWS V14.00,2013-01-16 09:45:00,
2013-01-16 01:50:00,43.7,15.1,30.42,East,82,3.0,6.0,31,0.00,,---,0.00,VWS V14.00,2013-01-16 09:50:00,
2013-01-16 01:55:00,44.6,15.9,30.41,East,82,2.0,13.0,31,0.00,,---,0.00,VWS V14.00,2013-01-16 09:55:00,
2013-01-16 02:00:00,45.3,15.7,30.42,East,82,2.0,5.0,30,0.00,,---,0.00,VWS V14.00,2013-01-16 10:00:00,
2013-01-16 02:05:00,45.7,16.1,30.42,East,82,0.0,6.0,30,0.00,,---,0.00,VWS V14.00,2013-01-16 10:05:00,
2013-01-16 02:10:00,46.0,16.3,30.42,East,82,2.0,6.0,30,0.00,,---,0.00,VWS V14.00,2013-01-16 10:10:00,
2013-01-16 02:15:00,46.6,16.1,30.42,East,82,2.0,6.0,29,0.00,,---,0.00,VWS V14.00,2013-01-16 10:15:00,
2013-01-16 02:20:00,46.9,16.3,30.42,East,82,3.0,7.0,29,0.00,,---,0.00,VWS V14.00,2013-01-16 10:20:00,
2013-01-16 02:25:00,47.2,15.8,30.42,East,82,0.0,6.0,28,0.00,,---,0.00,VWS V14.00,2013-01-16 10:25:00,
2013-01-16 02:30:00,47.1,15.7,30.42,East,82,0.0,9.0,28,0.00,,---,0.00,VWS V14.00,2013-01-16 10:30:00,
2013-01-16 02:35:00,47.7,15.4,30.42,East,82,3.0,7.0,27,0.00,,---,0.00,VWS V14.00,2013-01-16 10:35:00,
2013-01-16 02:40:00,48.2,16.6,30.41,East,82,5.0,6.0,28,0.00,,---,0.00,VWS V14.00,2013-01-16 10:40:00,
2013-01-16 02:45:00,48.2,15.8,30.41,East,80,7.0,18.0,27,0.00,,---,0.00,VWS V14.00,2013-01-16 10:45:00,
2013-01-16 02:50:00,49.2,18.3,30.41,East,81,2.0,10.0,29,0.00,,---,0.00,VWS V14.00,2013-01-16 10:50:00,
2013-01-16 02:55:00,49.4,16.0,30.40,East,80,11.0,14.0,26,0.00,,---,0.00,VWS V14.00,2013-01-16 10:55:00,
2013-01-16 03:00:00,49.2,17.5,30.41,ENE,75,7.0,15.0,28,0.00,,---,0.00,VWS V14.00,2013-01-16 11:00:00,
2013-01-16 03:05:00,49.6,17.0,30.40,ENE,75,7.0,8.0,27,0.00,,---,0.00,VWS V14.00,2013-01-16 11:05:00,
2013-01-16 03:10:00,49.8,18.0,30.41,ENE,75,2.0,5.0,28,0.00,,---,0.00,VWS V14.00,2013-01-16 11:10:00,
2013-01-16 03:15:00,49.1,17.4,30.40,ENE,75,2.0,4.0,28,0.00,,---,0.00,VWS V14.00,2013-01-16 11:15:00,
2013-01-16 03:20:00,47.6,16.1,30.40,ENE,75,2.0,5.0,28,0.00,,---,0.00,VWS V14.00,2013-01-16 11:20:00,
2013-01-16 03:25:00,46.7,16.1,30.40,ENE,75,1.0,8.0,29,0.00,,---,0.00,VWS V14.00,2013-01-16 11:25:00,
2013-01-16 03:31:00,46.3,15.8,30.40,ENE,75,2.0,7.0,29,0.00,,---,0.00,VWS V14.00,2013-01-16 11:31:00,
2013-01-16 03:36:00,45.8,16.1,30.40,ENE,75,3.0,9.0,30,0.00,,---,0.00,VWS V14.00,2013-01-16 11:36:00,
2013-01-16 03:41:00,46.0,16.3,30.39,ENE,74,5.0,8.0,30,0.00,,---,0.00,VWS V14.00,2013-01-16 11:41:00,
2013-01-16 03:46:00,48.4,18.4,30.39,NNW,342,8.0,24.0,30,0.00,,---,0.00,VWS V14.00,2013-01-16 11:46:00,
2013-01-16 03:51:00,51.7,20.5,30.40,NNE,15,9.0,19.0,29,0.00,,---,0.00,VWS V14.00,2013-01-16 11:51:00,
2013-01-16 03:56:00,51.9,19.0,30.40,NNE,15,0.0,4.0,27,0.00,,---,0.00,VWS V14.00,2013-01-16 11:56:00,
2013-01-16 04:01:00,50.2,16.6,30.39,NNE,15,2.0,5.0,26,0.00,,---,0.00,VWS V14.00,2013-01-16 12:01:00,
2013-01-16 04:06:00,47.8,15.5,30.39,NNE,15,2.0,4.0,27,0.00,,---,0.00,VWS V14.00,2013-01-16 12:06:00,
2013-01-16 04:11:00,45.9,15.4,30.40,NNE,15,2.0,4.0,29,0.00,,---,0.00,VWS V14.00,2013-01-16 12:11:00,
2013-01-16 04:16:00,45.1,15.5,30.40,NNE,15,5.0,6.0,30,0.00,,---,0.00,VWS V14.00,2013-01-16 12:16:00,
2013-01-16 04:21:00,44.3,15.6,30.39,NNE,28,4.0,11.0,31,0.00,,---,0.00,VWS V14.00,2013-01-16 12:21:00,
2013-01-16 04:26:00,45.2,14.9,30.39,ENE,60,9.0,13.0,29,0.00,,---,0.00,VWS V14.00,2013-01-16 12:26:00,
2013-01-16 04:31:00,45.9,14.6,30.39,ENE,61,7.0,11.0,28,0.00,,---,0.00,VWS V14.00,2013-01-16 12:31:00,
2013-01-16 04:36:00,45.0,14.7,30.39,ENE,62,8.0,10.0,29,0.00,,---,0.00,VWS V14.00,2013-01-16 12:36:00,
2013-01-16 04:41:00,44.8,15.3,30.39,ENE,63,1.0,11.0,30,0.00,,---,0.00,VWS V14.00,2013-01-16 12:41:00,
2013-01-16 04:46:00,44.3,14.8,30.40,ENE,63,4.0,12.0,30,0.00,,---,0.00,VWS V14.00,2013-01-16 12:46:00,
2013-01-16 04:51:00,45.1,16.3,30.39,ENE,63,8.0,9.0,31,0.00,,---,0.00,VWS V14.00,2013-01-16 12:51:00,
2013-01-16 04:56:00,46.4,15.9,30.39,ENE,67,7.0,11.0,29,0.00,,---,0.00,VWS V14.00,2013-01-16 12:56:00,
2013-01-16 05:01:00,46.9,16.3,30.40,ESE,113,7.0,17.0,29,0.00,,---,0.00,VWS V14.00,2013-01-16 13:01:00,
2013-01-16 05:06:00,45.9,15.4,30.40,ESE,113,0.0,9.0,29,0.00,,---,0.00,VWS V14.00,2013-01-16 13:06:00,
2013-01-16 05:11:00,45.5,15.1,30.40,ESE,113,3.0,4.0,29,0.00,,---,0.00,VWS V14.00,2013-01-16 13:11:00,
2013-01-16 05:16:00,45.1,15.5,30.40,ESE,113,2.0,4.0,30,0.00,,---,0.00,VWS V14.00,2013-01-16 13:16:00,
2013-01-16 05:21:00,44.6,15.1,30.40,ESE,113,2.0,3.0,30,0.00,,---,0.00,VWS V14.00,2013-01-16 13:21:00,
2013-01-16 05:26:00,44.1,14.7,30.40,ESE,113,3.0,4.0,30,0.00,,---,0.00,VWS V14.00,2013-01-16 13:26:00,
2013-01-16 05:31:00,44.4,14.9,30.40,ESE,107,3.0,10.0,30,0.00,,---,0.00,VWS V14.00,2013-01-16 13:31:00,
2013-01-16 05:36:00,45.1,14.8,30.40,ESE,107,7.0,7.0,29,0.00,,---,0.00,VWS V14.00,2013-01-16 13:36:00,
2013-01-16 05:41:00,46.0,15.5,30.40,East,101,1.0,12.0,29,0.00,,---,0.00,VWS V14.00,2013-01-16 13:41:00,
2013-01-16 05:46:00,46.7,16.1,30.40,ENE,76,2.0,15.0,29,0.00,,---,0.00,VWS V14.00,2013-01-16 13:46:00,
2013-01-16 05:51:00,47.6,16.1,30.40,SSE,152,9.0,14.0,28,0.00,,---,0.00,VWS V14.00,2013-01-16 13:51:00,
2013-01-16 05:56:00,47.9,15.6,30.40,SE,128,8.0,37.0,27,0.00,,---,0.00,VWS V14.00,2013-01-16 13:56:00,
2013-01-16 06:01:00,47.4,15.9,30.40,SE,128,2.0,10.0,28,0.00,,---,0.00,VWS V14.00,2013-01-16 14:01:00,
2013-01-16 06:06:00,46.6,15.3,30.40,SE,128,5.0,9.0,28,0.00,,---,0.00,VWS V14.00,2013-01-16 14:06:00,
2013-01-16 06:11:00,44.7,14.4,30.41,NNW,346,4.0,13.0,29,0.00,,---,0.00,VWS V14.00,2013-01-16 14:11:00,
2013-01-16 06:16:00,45.1,15.5,30.40,NNW,346,6.0,8.0,30,0.00,,---,0.00,VWS V14.00,2013-01-16 14:16:00,
2013-01-16 06:21:00,44.6,15.1,30.40,NNW,346,0.0,6.0,30,0.00,,---,0.00,VWS V14.00,2013-01-16 14:21:00,
2013-01-16 06:26:00,44.2,14.8,30.41,NNW,346,2.0,6.0,30,0.00,,---,0.00,VWS V14.00,2013-01-16 14:26:00,
2013-01-16 06:31:00,43.9,15.2,30.40,NNW,346,0.0,6.0,31,0.00,,---,0.00,VWS V14.00,2013-01-16 14:31:00,
2013-01-16 06:36:00,43.9,15.2,30.40,NNW,346,4.0,5.0,31,0.00,,---,0.00,VWS V14.00,2013-01-16 14:36:00,
2013-01-16 06:41:00,44.5,15.8,30.41,NNW,342,4.0,8.0,31,0.00,,---,0.00,VWS V14.00,2013-01-16 14:41:00,
2013-01-16 06:46:00,45.1,15.5,30.40,NNW,342,4.0,4.0,30,0.00,,---,0.00,VWS V14.00,2013-01-16 14:46:00,
2013-01-16 06:51:00,45.9,15.4,30.41,NNW,342,1.0,5.0,29,0.00,,---,0.00,VWS V14.00,2013-01-16 14:51:00,
2013-01-16 06:56:00,45.6,16.0,30.41,NNW,342,1.0,4.0,30,0.00,,---,0.00,VWS V14.00,2013-01-16 14:56:00,
2013-01-16 07:01:00,45.3,15.7,30.41,NNW,342,2.0,3.0,30,0.00,,---,0.00,VWS V14.00,2013-01-16 15:01:00,
2013-01-16 07:06:00,44.8,15.3,30.41,NNW,342,1.0,6.0,30,0.00,,---,0.00,VWS V14.00,2013-01-16 15:06:00,
2013-01-16 07:11:00,45.0,16.2,30.41,NNW,342,2.0,2.0,31,0.00,,---,0.00,VWS V14.00,2013-01-16 15:11:00,
2013-01-16 07:16:00,45.8,16.1,30.41,NNW,342,2.0,4.0,30,0.00,,---,0.00,VWS V14.00,2013-01-16 15:16:00,
2013-01-16 07:21:00,46.3,16.6,30.41,NNW,342,1.0,3.0,30,0.00,,---,0.00,VWS V14.00,2013-01-16 15:21:00,
2013-01-16 07:26:00,46.9,16.3,30.42,NNW,342,2.0,2.0,29,0.00,,---,0.00,VWS V14.00,2013-01-16 15:26:00,
2013-01-16 07:31:00,47.4,16.8,30.42,NNW,342,2.0,3.0,29,0.00,,---,0.00,VWS V14.00,2013-01-16 15:31:00,
2013-01-16 07:36:00,47.6,17.7,30.41,NNW,342,0.0,4.0,30,0.00,,---,0.00,VWS V14.00,2013-01-16 15:36:00,
2013-01-16 07:41:00,48.2,17.5,30.42,NNW,342,3.0,4.0,29,0.00,,---,0.00,VWS V14.00,2013-01-16 15:41:00,
2013-01-16 07:46:00,48.8,18.0,30.42,NNW,342,2.0,4.0,29,0.00,,---,0.00,VWS V14.00,2013-01-16 15:46:00,
2013-01-16 07:51:00,49.1,17.4,30.42,NNW,342,1.0,4.0,28,0.00,,---,0.00,VWS V14.00,2013-01-16 15:51:00,
2013-01-16 07:56:00,49.2,17.5,30.42,NNW,342,4.0,7.0,28,0.00,,---,0.00,VWS V14.00,2013-01-16 15:56:00,
2013-01-16 08:01:00,49.1,16.6,30.42,NNW,342,4.0,8.0,27,0.00,,---,0.00,VWS V14.00,2013-01-16 16:01:00,
2013-01-16 08:06:00,48.9,16.4,30.42,NNW,342,0.0,7.0,27,0.00,,---,0.00,VWS V14.00,2013-01-16 16:06:00,
2013-01-16 08:11:00,49.0,16.5,30.42,NNW,342,0.0,0.0,27,0.00,,---,0.00,VWS V14.00,2013-01-16 16:11:00,
2013-01-16 08:16:00,49.4,16.8,30.43,NNW,342,0.0,0.0,27,0.00,,---,0.00,VWS V14.00,2013-01-16 16:16:00,
2013-01-16 08:21:00,49.9,17.3,30.43,NNW,342,0.0,0.0,27,0.00,,---,0.00,VWS V14.00,2013-01-16 16:21:00,
2013-01-16 08:26:00,50.5,16.9,30.43,NNW,342,0.0,0.0,26,0.00,,---,0.00,VWS V14.00,2013-01-16 16:26:00,
2013-01-16 08:31:00,51.3,16.7,30.43,NNW,342,0.0,0.0,25,0.00,,---,0.00,VWS V14.00,2013-01-16 16:31:00,
2013-01-16 08:36:00,52.2,16.5,30.43,NNW,342,1.0,4.0,24,0.00,,---,0.00,VWS V14.00,2013-01-16 16:36:00,
2013-01-16 08:41:00,52.3,17.5,30.43,NNW,342,0.0,6.0,25,0.00,,---,0.00,VWS V14.00,2013-01-16 16:41:00,
2013-01-16 08:46:00,52.3,17.5,30.43,NNW,342,2.0,2.0,25,0.00,,---,0.00,VWS V14.00,2013-01-16 16:46:00,
2013-01-16 08:51:00,52.7,17.9,30.43,NNW,342,0.0,0.0,25,0.00,,---,0.00,VWS V14.00,2013-01-16 16:51:00,
2013-01-16 08:56:00,53.0,17.2,30.43,NNW,342,0.0,0.0,24,0.00,,---,0.00,VWS V14.00,2013-01-16 16:56:00,
2013-01-16 09:01:00,53.1,17.3,30.43,NNW,342,3.0,3.0,24,0.00,,---,0.00,VWS V14.00,2013-01-16 17:01:00,
2013-01-16 09:06:00,53.0,17.2,30.43,NNW,342,4.0,4.0,24,0.00,,---,0.00,VWS V14.00,2013-01-16 17:06:00,
2013-01-16 09:11:00,52.7,16.9,30.43,NNW,342,4.0,5.0,24,0.00,,---,0.00,VWS V14.00,2013-01-16 17:11:00,
2013-01-16 09:16:00,52.8,17.0,30.43,NNW,342,3.0,3.0,24,0.00,,---,0.00,VWS V14.00,2013-01-16 17:16:00,
2013-01-16 09:21:00,52.8,17.0,30.43,NNW,344,4.0,4.0,24,0.00,,---,0.00,VWS V14.00,2013-01-16 17:21:00,
2013-01-16 09:26:00,52.8,17.0,30.43,North,5,3.0,4.0,24,0.00,,---,0.00,VWS V14.00,2013-01-16 17:26:00,
2013-01-16 09:31:00,53.4,17.5,30.42,NNE,27,7.0,12.0,24,0.00,,---,0.00,VWS V14.00,2013-01-16 17:31:00,
2013-01-16 09:36:00,53.9,18.0,30.43,ENE,58,9.0,12.0,24,0.00,,---,0.00,VWS V14.00,2013-01-16 17:36:00,
2013-01-16 09:41:00,53.9,17.0,30.43,ENE,65,7.0,7.0,23,0.00,,---,0.00,VWS V14.00,2013-01-16 17:41:00,
2013-01-16 09:46:00,54.0,17.1,30.43,ENE,78,4.0,4.0,23,0.00,,---,0.00,VWS V14.00,2013-01-16 17:46:00,
2013-01-16 09:51:00,54.3,17.3,30.43,East,82,2.0,8.0,23,0.00,,---,0.00,VWS V14.00,2013-01-16 17:51:00,
2013-01-16 09:56:00,54.6,16.5,30.43,East,82,11.0,11.0,22,0.00,,---,0.00,VWS V14.00,2013-01-16 17:56:00,
2013-01-16 10:01:00,54.9,16.8,30.43,East,83,6.0,7.0,22,0.00,,---,0.00,VWS V14.00,2013-01-16 18:01:00,
2013-01-16 10:06:00,54.8,16.7,30.42,East,97,5.0,6.0,22,0.00,,---,0.00,VWS V14.00,2013-01-16 18:06:00,
2013-01-16 10:11:00,54.8,15.6,30.42,East,97,2.0,5.0,21,0.00,,---,0.00,VWS V14.00,2013-01-16 18:11:00,
2013-01-16 10:16:00,54.8,15.6,30.42,ESE,108,10.0,12.0,21,0.00,,---,0.00,VWS V14.00,2013-01-16 18:16:00,
2013-01-16 10:21:00,54.5,15.4,30.42,SE,124,10.0,15.0,21,0.00,,---,0.00,VWS V14.00,2013-01-16 18:21:00,
2013-01-16 10:26:00,54.5,16.5,30.41,SE,128,6.0,9.0,22,0.00,,---,0.00,VWS V14.00,2013-01-16 18:26:00,
2013-01-16 10:31:00,54.8,15.6,30.41,SE,128,4.0,5.0,21,0.00,,---,0.00,VWS V14.00,2013-01-16 18:31:00,
2013-01-16 10:36:00,55.2,17.0,30.41,SE,128,8.0,11.0,22,0.00,,---,0.00,VWS V14.00,2013-01-16 18:36:00,
2013-01-16 10:41:00,55.3,16.0,30.40,SE,134,10.0,13.0,21,0.00,,---,0.00,VWS V14.00,2013-01-16 18:41:00,
2013-01-16 10:46:00,55.5,17.3,30.40,SE,135,14.0,14.0,22,0.00,,---,0.00,VWS V14.00,2013-01-16 18:46:00,
2013-01-16 10:51:00,55.7,17.5,30.40,SSE,147,7.0,7.0,22,0.00,,---,0.00,VWS V14.00,2013-01-16 18:51:00,
2013-01-16 10:56:00,55.5,17.3,30.39,SSE,147,5.0,8.0,22,0.00,,---,0.00,VWS V14.00,2013-01-16 18:56:00,
2013-01-16 11:01:00,55.6,17.4,30.39,SSE,147,4.0,5.0,22,0.00,,---,0.00,VWS V14.00,2013-01-16 19:01:00,
2013-01-16 11:06:00,55.8,17.5,30.39,SSE,148,11.0,15.0,22,0.00,,---,0.00,VWS V14.00,2013-01-16 19:06:00,
2013-01-16 11:11:00,55.9,16.5,30.38,SSE,148,6.0,12.0,21,0.00,,---,0.00,VWS V14.00,2013-01-16 19:11:00,
2013-01-16 11:16:00,56.1,16.7,30.38,SE,140,13.0,13.0,21,0.00,,---,0.00,VWS V14.00,2013-01-16 19:16:00,
2013-01-16 11:21:00,55.8,17.5,30.37,SE,142,6.0,10.0,22,0.00,,---,0.00,VWS V14.00,2013-01-16 19:21:00,
2013-01-16 11:26:00,56.2,17.9,30.36,SSE,151,9.0,9.0,22,0.00,,---,0.00,VWS V14.00,2013-01-16 19:26:00,
2013-01-16 11:31:00,56.0,17.7,30.37,SSE,152,1.0,5.0,22,0.00,,---,0.00,VWS V14.00,2013-01-16 19:31:00,
2013-01-16 11:36:00,56.3,18.0,30.36,SSE,152,7.0,8.0,22,0.00,,---,0.00,VWS V14.00,2013-01-16 19:36:00,
2013-01-16 11:41:00,56.3,18.0,30.36,SSE,151,9.0,11.0,22,0.00,,---,0.00,VWS V14.00,2013-01-16 19:41:00,
2013-01-16 11:46:00,56.6,18.2,30.36,SE,143,5.0,9.0,22,0.00,,---,0.00,VWS V14.00,2013-01-16 19:46:00,
2013-01-16 11:51:00,57.0,18.5,30.35,SE,134,8.0,13.0,22,0.00,,---,0.00,VWS V14.00,2013-01-16 19:51:00,
2013-01-16 11:56:00,57.4,17.8,30.35,SSE,147,10.0,14.0,21,0.00,,---,0.00,VWS V14.00,2013-01-16 19:56:00,
2013-01-16 12:01:00,57.6,19.1,30.35,SSE,150,15.0,15.0,22,0.00,,---,0.00,VWS V14.00,2013-01-16 20:01:00,
2013-01-16 12:07:00,57.4,17.8,30.34,SSE,147,15.0,17.0,21,0.00,,---,0.00,VWS V14.00,2013-01-16 20:07:00,
2013-01-16 12:12:00,57.8,19.2,30.34,SSE,153,13.0,24.0,22,0.00,,---,0.00,VWS V14.00,2013-01-16 20:12:00,
2013-01-16 12:17:00,58.0,18.3,30.34,SSE,153,10.0,12.0,21,0.00,,---,0.00,VWS V14.00,2013-01-16 20:17:00,
2013-01-16 12:22:00,58.1,19.5,30.33,SSE,153,9.0,12.0,22,0.00,,---,0.00,VWS V14.00,2013-01-16 20:22:00,
2013-01-16 12:27:00,58.7,18.9,30.33,SSE,153,6.0,7.0,21,0.00,,---,0.00,VWS V14.00,2013-01-16 20:27:00,
2013-01-16 12:32:00,58.7,20.0,30.33,SSE,153,5.0,10.0,22,0.00,,---,0.00,VWS V14.00,2013-01-16 20:32:00,
2013-01-16 12:37:00,59.2,19.3,30.32,SSE,153,1.0,5.0,21,0.00,,---,0.00,VWS V14.00,2013-01-16 20:37:00,
2013-01-16 12:42:00,59.8,19.8,30.32,SSE,153,10.0,11.0,21,0.00,,---,0.00,VWS V14.00,2013-01-16 20:42:00,
2013-01-16 12:47:00,60.3,21.3,30.31,SW,223,5.0,5.0,22,0.00,,---,0.00,VWS V14.00,2013-01-16 20:47:00,
2013-01-16 12:52:00,60.7,20.6,30.31,SSW,210,3.0,3.0,21,0.00,,---,0.00,VWS V14.00,2013-01-16 20:52:00,
2013-01-16 12:57:00,61.0,19.7,30.31,South,187,14.0,14.0,20,0.00,,---,0.00,VWS V14.00,2013-01-16 20:57:00,
2013-01-16 13:02:00,61.5,21.2,30.30,SW,228,7.0,8.0,21,0.00,,---,0.00,VWS V14.00,2013-01-16 21:02:00,
2013-01-16 13:07:00,62.1,20.6,30.30,SSE,147,9.0,10.0,20,0.00,,---,0.00,VWS V14.00,2013-01-16 21:07:00,
2013-01-16 13:12:00,62.0,20.5,30.30,SE,126,16.0,17.0,20,0.00,,---,0.00,VWS V14.00,2013-01-16 21:12:00,
2013-01-16 13:17:00,61.2,19.8,30.30,SE,136,10.0,13.0,20,0.00,,---,0.00,VWS V14.00,2013-01-16 21:17:00,
2013-01-16 13:22:00,61.5,21.2,30.29,SE,137,8.0,11.0,21,0.00,,---,0.00,VWS V14.00,2013-01-16 21:22:00,
2013-01-16 13:27:00,61.5,20.1,30.29,SE,134,16.0,18.0,20,0.00,,---,0.00,VWS V14.00,2013-01-16 21:27:00,
2013-01-16 13:32:00,61.3,21.1,30.28,SE,139,8.0,14.0,21,0.00,,---,0.00,VWS V14.00,2013-01-16 21:32:00,
2013-01-16 13:37:00,61.4,21.1,30.28,SE,142,13.0,15.0,21,0.00,,---,0.00,VWS V14.00,2013-01-16 21:37:00,
2013-01-16 13:42:00,61.6,21.3,30.28,SE,144,1.0,9.0,21,0.00,,---,0.00,VWS V14.00,2013-01-16 21:42:00,
2013-01-16 13:47:00,62.1,20.6,30.28,SE,144,10.0,14.0,20,0.00,,---,0.00,VWS V14.00,2013-01-16 21:47:00,
2013-01-16 13:52:00,62.4,20.8,30.28,SE,144,3.0,6.0,20,0.00,,---,0.00,VWS V14.00,2013-01-16 21:52:00,
2013-01-16 13:57:00,62.5,22.1,30.27,SE,144,5.0,8.0,21,0.00,,---,0.00,VWS V14.00,2013-01-16 21:57:00,
2013-01-16 14:02:00,63.2,21.5,30.27,SE,143,4.0,12.0,20,0.00,,---,0.00,VWS V14.00,2013-01-16 22:02:00,
2013-01-16 14:07:00,63.4,21.7,30.27,SE,142,3.0,10.0,20,0.00,,---,0.00,VWS V14.00,2013-01-16 22:07:00,
2013-01-16 14:12:00,63.9,22.1,30.27,SSE,160,3.0,10.0,20,0.00,,---,0.00,VWS V14.00,2013-01-16 22:12:00,
2013-01-16 14:17:00,64.1,22.2,30.27,SSE,161,10.0,10.0,20,0.00,,---,0.00,VWS V14.00,2013-01-16 22:17:00,
2013-01-16 14:22:00,64.2,22.3,30.27,SSE,167,7.0,13.0,20,0.00,,---,0.00,VWS V14.00,2013-01-16 22:22:00,
2013-01-16 14:27:00,64.1,22.2,30.27,SSE,167,3.0,10.0,20,0.00,,---,0.00,VWS V14.00,2013-01-16 22:27:00,
2013-01-16 14:32:00,64.4,22.5,30.27,SSE,168,3.0,3.0,20,0.00,,---,0.00,VWS V14.00,2013-01-16 22:32:00,
2013-01-16 14:37:00,64.7,22.7,30.27,South,171,2.0,12.0,20,0.00,,---,0.00,VWS V14.00,2013-01-16 22:37:00,
2013-01-16 14:42:00,64.7,21.5,30.27,South,171,2.0,4.0,19,0.00,,---,0.00,VWS V14.00,2013-01-16 22:42:00,
2013-01-16 14:47:00,64.7,21.5,30.27,South,171,8.0,8.0,19,0.00,,---,0.00,VWS V14.00,2013-01-16 22:47:00,
2013-01-16 14:52:00,64.8,22.8,30.27,South,171,6.0,7.0,20,0.00,,---,0.00,VWS V14.00,2013-01-16 22:52:00,
2013-01-16 14:57:00,64.9,22.9,30.27,South,171,1.0,6.0,20,0.00,,---,0.00,VWS V14.00,2013-01-16 22:57:00,
2013-01-16 15:02:00,64.8,22.8,30.26,South,171,3.0,13.0,20,0.00,,---,0.00,VWS V14.00,2013-01-16 23:02:00,
2013-01-16 15:07:00,65.1,21.9,30.26,South,171,6.0,6.0,19,0.00,,---,0.00,VWS V14.00,2013-01-16 23:07:00,
2013-01-16 15:12:00,65.3,22.0,30.26,South,171,7.0,7.0,19,0.00,,---,0.00,VWS V14.00,2013-01-16 23:12:00,
2013-01-16 15:17:00,65.0,23.0,30.27,South,169,9.0,9.0,20,0.00,,---,0.00,VWS V14.00,2013-01-16 23:17:00,
2013-01-16 15:22:00,64.2,22.3,30.26,SE,140,11.0,21.0,20,0.00,,---,0.00,VWS V14.00,2013-01-16 23:22:00,
2013-01-16 15:27:00,63.2,22.6,30.26,SSE,151,11.0,17.0,21,0.00,,---,0.00,VWS V14.00,2013-01-16 23:27:00,
2013-01-16 15:32:00,62.9,22.4,30.27,SSE,150,13.0,15.0,21,0.00,,---,0.00,VWS V14.00,2013-01-16 23:32:00,
2013-01-16 15:37:00,62.7,23.3,30.27,SSE,148,10.0,12.0,22,0.00,,---,0.00,VWS V14.00,2013-01-16 23:37:00,
2013-01-16 15:42:00,62.5,23.2,30.27,SSE,148,8.0,15.0,22,0.00,,---,0.00,VWS V14.00,2013-01-16 23:42:00,
2013-01-16 15:47:00,62.4,23.1,30.27,SSE,150,6.0,12.0,22,0.00,,---,0.00,VWS V14.00,2013-01-16 23:47:00,
2013-01-16 15:52:00,62.4,23.1,30.27,SSE,150,4.0,10.0,22,0.00,,---,0.00,VWS V14.00,2013-01-16 23:52:00,
2013-01-16 15:57:00,62.3,23.0,30.27,SSE,150,8.0,9.0,22,0.00,,---,0.00,VWS V14.00,2013-01-16 23:57:00,
2013-01-16 16:02:00,62.2,22.9,30.27,SSE,150,11.0,11.0,22,0.00,,---,0.00,VWS V14.00,2013-01-17 00:02:00,
2013-01-16 16:07:00,62.0,22.8,30.27,SSE,149,5.0,7.0,22,0.00,,---,0.00,VWS V14.00,2013-01-17 00:07:00,
2013-01-16 16:12:00,61.8,22.6,30.28,SSE,149,4.0,6.0,22,0.00,,---,0.00,VWS V14.00,2013-01-17 00:12:00,
2013-01-16 16:17:00,61.7,22.5,30.28,SSE,149,3.0,5.0,22,0.00,,---,0.00,VWS V14.00,2013-01-17 00:17:00,
2013-01-16 16:22:00,61.7,22.5,30.28,SSE,149,4.0,4.0,22,0.00,,---,0.00,VWS V14.00,2013-01-17 00:22:00,
2013-01-16 16:27:00,61.6,22.4,30.28,SSE,149,3.0,3.0,22,0.00,,---,0.00,VWS V14.00,2013-01-17 00:27:00,
2013-01-16 16:32:00,61.7,22.5,30.28,SSE,149,0.0,0.0,22,0.00,,---,0.00,VWS V14.00,2013-01-17 00:32:00,
2013-01-16 16:37:00,62.0,22.8,30.28,SSE,149,3.0,4.0,22,0.00,,---,0.00,VWS V14.00,2013-01-17 00:37:00,
2013-01-16 16:42:00,61.6,22.4,30.28,SSE,149,3.0,3.0,22,0.00,,---,0.00,VWS V14.00,2013-01-17 00:42:00,
2013-01-16 16:47:00,61.3,19.9,30.28,SSE,149,2.0,14.0,20,0.00,,---,0.00,VWS V14.00,2013-01-17 00:47:00,
2013-01-16 16:52:00,62.3,20.8,30.28,SSE,149,1.0,9.0,20,0.00,,---,0.00,VWS V14.00,2013-01-17 00:52:00,
2013-01-16 16:57:00,61.9,21.6,30.28,SE,138,5.0,8.0,21,0.00,,---,0.00,VWS V14.00,2013-01-17 00:57:00,
2013-01-16 17:02:00,60.7,21.7,30.28,SE,138,4.0,10.0,22,0.00,,---,0.00,VWS V14.00,2013-01-17 01:02:00,
2013-01-16 17:07:00,59.8,22.0,30.28,SE,138,5.0,6.0,23,0.00,,---,0.00,VWS V14.00,2013-01-17 01:07:00,
2013-01-16 17:12:00,59.2,22.5,30.28,SE,138,2.0,4.0,24,0.00,,---,0.00,VWS V14.00,2013-01-17 01:12:00,
2013-01-16 17:17:00,58.6,21.9,30.28,SE,128,4.0,9.0,24,0.00,,---,0.00,VWS V14.00,2013-01-17 01:17:00,
2013-01-16 17:22:00,58.5,21.9,30.28,SE,127,4.0,7.0,24,0.00,,---,0.00,VWS V14.00,2013-01-17 01:22:00,
2013-01-16 17:27:00,58.6,21.9,30.28,SE,127,2.0,4.0,24,0.00,,---,0.00,VWS V14.00,2013-01-17 01:27:00,
2013-01-16 17:32:00,59.4,19.5,30.28,ESE,113,10.0,12.0,21,0.00,,---,0.00,VWS V14.00,2013-01-17 01:32:00,
2013-01-16 17:37:00,60.3,20.2,30.29,ESE,106,8.0,13.0,21,0.00,,---,0.00,VWS V14.00,2013-01-17 01:37:00,
2013-01-16 17:42:00,60.4,19.2,30.29,ENE,69,13.0,20.0,20,0.00,,---,0.00,VWS V14.00,2013-01-17 01:42:00,
2013-01-16 17:47:00,60.9,19.6,30.29,NE,44,13.0,22.0,20,0.00,,---,0.00,VWS V14.00,2013-01-17 01:47:00,
2013-01-16 17:52:00,61.2,19.8,30.29,NE,46,9.0,12.0,20,0.00,,---,0.00,VWS V14.00,2013-01-17 01:52:00,
2013-01-16 17:57:00,60.9,19.6,30.29,NE,47,12.0,16.0,20,0.00,,---,0.00,VWS V14.00,2013-01-17 01:57:00,
2013-01-16 18:02:00,60.9,19.6,30.29,NE,51,8.0,15.0,20,0.00,,---,0.00,VWS V14.00,2013-01-17 02:02:00,
2013-01-16 18:07:00,60.9,19.6,30.29,East,79,16.0,23.0,20,0.00,,---,0.00,VWS V14.00,2013-01-17 02:07:00,
2013-01-16 18:12:00,61.0,19.7,30.29,ENE,62,9.0,13.0,20,0.00,,---,0.00,VWS V14.00,2013-01-17 02:12:00,
2013-01-16 18:17:00,61.2,18.6,30.29,NE,49,14.0,23.0,19,0.00,,---,0.00,VWS V14.00,2013-01-17 02:17:00,
2013-01-16 18:22:00,61.4,18.8,30.29,NE,48,8.0,12.0,19,0.00,,---,0.00,VWS V14.00,2013-01-17 02:22:00,
2013-01-16 18:27:00,61.2,18.6,30.29,NE,34,13.0,19.0,19,0.00,,---,0.00,VWS V14.00,2013-01-17 02:27:00,
2013-01-16 18:32:00,61.6,19.0,30.29,NE,36,4.0,21.0,19,0.00,,---,0.00,VWS V14.00,2013-01-17 02:32:00,
2013-01-16 18:37:00,61.6,19.0,30.29,NE,38,10.0,14.0,19,0.00,,---,0.00,VWS V14.00,2013-01-17 02:37:00,
2013-01-16 18:42:00,61.3,18.7,30.29,NNE,29,8.0,21.0,19,0.00,,---,0.00,VWS V14.00,2013-01-17 02:42:00,
2013-01-16 18:48:00,61.9,19.2,30.29,NE,51,20.0,25.0,19,0.00,,---,0.00,VWS V14.00,2013-01-17 02:48:00,
2013-01-16 18:53:00,62.1,19.4,30.29,NE,54,12.0,14.0,19,0.00,,---,0.00,VWS V14.00,2013-01-17 02:53:00,
2013-01-16 18:58:00,61.6,19.0,30.29,NE,47,12.0,22.0,19,0.00,,---,0.00,VWS V14.00,2013-01-17 02:58:00,
2013-01-16 19:03:00,61.0,19.7,30.30,NE,38,6.0,8.0,20,0.00,,---,0.00,VWS V14.00,2013-01-17 03:03:00,
2013-01-16 19:08:00,58.4,19.7,30.30,NE,38,4.0,6.0,22,0.00,,---,0.00,VWS V14.00,2013-01-17 03:08:00,
2013-01-16 19:13:00,56.9,20.5,30.30,NE,36,4.0,8.0,24,0.00,,---,0.00,VWS V14.00,2013-01-17 03:13:00,
2013-01-16 19:18:00,56.7,20.3,30.30,NE,36,2.0,10.0,24,0.00,,---,0.00,VWS V14.00,2013-01-17 03:18:00,
2013-01-16 19:23:00,58.7,18.9,30.30,NNE,19,7.0,16.0,21,0.00,,---,0.00,VWS V14.00,2013-01-17 03:23:00,
2013-01-16 19:28:00,60.2,19.0,30.30,NNE,15,12.0,16.0,20,0.00,,---,0.00,VWS V14.00,2013-01-17 03:28:00,
2013-01-16 19:33:00,60.3,19.1,30.30,NNE,15,5.0,7.0,20,0.00,,---,0.00,VWS V14.00,2013-01-17 03:33:00,
2013-01-16 19:38:00,59.9,18.8,30.30,NNE,15,2.0,6.0,20,0.00,,---,0.00,VWS V14.00,2013-01-17 03:38:00,
2013-01-16 19:43:00,59.1,18.1,30.30,NNE,15,6.0,7.0,20,0.00,,---,0.00,VWS V14.00,2013-01-17 03:43:00,
2013-01-16 19:48:00,58.7,18.9,30.30,NNE,15,5.0,5.0,21,0.00,,---,0.00,VWS V14.00,2013-01-17 03:48:00,
2013-01-16 19:53:00,58.8,19.0,30.30,NNE,15,5.0,10.0,21,0.00,,---,0.00,VWS V14.00,2013-01-17 03:53:00,
2013-01-16 19:58:00,58.7,18.9,30.30,NNE,15,5.0,8.0,21,0.00,,---,0.00,VWS V14.00,2013-01-17 03:58:00,
2013-01-16 20:03:00,58.8,19.0,30.30,NNE,15,4.0,7.0,21,0.00,,---,0.00,VWS V14.00,2013-01-17 04:03:00,
2013-01-16 20:08:00,58.3,18.6,30.30,NNE,17,6.0,10.0,21,0.00,,---,0.00,VWS V14.00,2013-01-17 04:08:00,
2013-01-16 20:13:00,58.2,18.5,30.30,NNE,19,9.0,13.0,21,0.00,,---,0.00,VWS V14.00,2013-01-17 04:13:00,
2013-01-16 20:18:00,58.7,18.9,30.29,NNE,21,5.0,7.0,21,0.00,,---,0.00,VWS V14.00,2013-01-17 04:18:00,
2013-01-16 20:23:00,58.3,18.6,30.30,North,351,2.0,9.0,21,0.00,,---,0.00,VWS V14.00,2013-01-17 04:23:00,
2013-01-16 20:28:00,57.5,19.0,30.29,North,355,3.0,5.0,22,0.00,,---,0.00,VWS V14.00,2013-01-17 04:28:00,
2013-01-16 20:33:00,56.9,18.5,30.29,North,351,7.0,8.0,22,0.00,,---,0.00,VWS V14.00,2013-01-17 04:33:00,
2013-01-16 20:38:00,57.3,18.8,30.29,North,351,6.0,10.0,22,0.00,,---,0.00,VWS V14.00,2013-01-17 04:38:00,
2013-01-16 20:43:00,57.2,18.7,30.29,North,355,0.0,4.0,22,0.00,,---,0.00,VWS V14.00,2013-01-17 04:43:00,
2013-01-16 20:48:00,57.1,18.6,30.29,North,355,2.0,4.0,22,0.00,,---,0.00,VWS V14.00,2013-01-17 04:48:00,
2013-01-16 20:53:00,56.8,18.4,30.29,North,355,3.0,4.0,22,0.00,,---,0.00,VWS V14.00,2013-01-17 04:53:00,
2013-01-16 20:58:00,56.2,18.9,30.29,North,351,0.0,3.0,23,0.00,,---,0.00,VWS V14.00,2013-01-17 04:58:00,
2013-01-16 21:01:00,55.6,18.4,30.29,North,351,2.0,10.0,23,0.00,,---,0.00,VWS V14.00,2013-01-17 05:01:00,
2013-01-16 21:03:00,55.3,19.1,30.29,North,351,3.0,6.0,24,0.00,,---,0.00,VWS V14.00,2013-01-17 05:03:00,
2013-01-16 21:06:00,55.1,19.0,30.29,North,351,3.0,8.0,24,0.00,,---,0.00,VWS V14.00,2013-01-17 05:06:00,
2013-01-16 21:11:00,55.5,19.3,30.29,North,351,4.0,6.0,24,0.00,,---,0.00,VWS V14.00,2013-01-17 05:11:00,
2013-01-16 21:13:00,56.0,19.7,30.28,North,351,6.0,8.0,24,0.00,,---,0.00,VWS V14.00,2013-01-17 05:13:00,
2013-01-16 21:18:00,57.3,19.8,30.28,North,351,3.0,6.0,23,0.00,,---,0.00,VWS V14.00,2013-01-17 05:18:00,
2013-01-16 21:23:00,56.6,18.2,30.28,North,355,4.0,8.0,22,0.00,,---,0.00,VWS V14.00,2013-01-17 05:23:00,
2013-01-16 21:28:00,55.7,18.5,30.28,North,355,5.0,6.0,23,0.00,,---,0.00,VWS V14.00,2013-01-17 05:28:00,
2013-01-16 21:33:00,54.3,18.3,30.28,North,355,8.0,10.0,24,0.00,,---,0.00,VWS V14.00,2013-01-17 05:33:00,
2013-01-16 21:38:00,54.6,18.5,30.28,North,355,6.0,7.0,24,0.00,,---,0.00,VWS V14.00,2013-01-17 05:38:00,
2013-01-16 21:43:00,55.3,18.1,30.28,North,355,8.0,14.0,23,0.00,,---,0.00,VWS V14.00,2013-01-17 05:43:00,
2013-01-16 21:48:00,56.0,18.8,30.28,North,355,3.0,7.0,23,0.00,,---,0.00,VWS V14.00,2013-01-17 05:48:00,
2013-01-16 21:53:00,55.7,18.5,30.28,North,355,8.0,11.0,23,0.00,,---,0.00,VWS V14.00,2013-01-17 05:53:00,
2013-01-16 21:58:00,55.6,18.4,30.28,North,355,7.0,7.0,23,0.00,,---,0.00,VWS V14.00,2013-01-17 05:58:00,
2013-01-16 22:03:00,55.3,18.1,30.28,North,355,5.0,8.0,23,0.00,,---,0.00,VWS V14.00,2013-01-17 06:03:00,
2013-01-16 22:08:00,54.6,17.6,30.28,North,355,3.0,6.0,23,0.00,,---,0.00,VWS V14.00,2013-01-17 06:08:00,
2013-01-16 22:13:00,54.4,18.4,30.28,North,355,4.0,6.0,24,0.00,,---,0.00,VWS V14.00,2013-01-17 06:13:00,
2013-01-16 22:18:00,54.2,18.2,30.28,North,355,4.0,5.0,24,0.00,,---,0.00,VWS V14.00,2013-01-17 06:18:00,
2013-01-16 22:23:00,53.9,18.0,30.28,North,355,4.0,7.0,24,0.00,,---,0.00,VWS V14.00,2013-01-17 06:23:00,
2013-01-16 22:28:00,54.3,18.3,30.28,North,355,5.0,9.0,24,0.00,,---,0.00,VWS V14.00,2013-01-17 06:28:00,
2013-01-16 22:33:00,54.7,17.6,30.28,North,355,5.0,6.0,23,0.00,,---,0.00,VWS V14.00,2013-01-17 06:33:00,
2013-01-16 22:38:00,55.2,18.1,30.27,North,355,5.0,6.0,23,0.00,,---,0.00,VWS V14.00,2013-01-17 06:38:00,
2013-01-16 22:43:00,55.5,18.3,30.27,North,355,3.0,8.0,23,0.00,,---,0.00,VWS V14.00,2013-01-17 06:43:00,
2013-01-16 22:48:00,55.3,18.1,30.27,North,355,6.0,7.0,23,0.00,,---,0.00,VWS V14.00,2013-01-17 06:48:00,
2013-01-16 22:53:00,54.7,17.6,30.26,North,355,8.0,10.0,23,0.00,,---,0.00,VWS V14.00,2013-01-17 06:53:00,
2013-01-16 22:58:00,55.0,17.9,30.26,North,355,5.0,10.0,23,0.00,,---,0.00,VWS V14.00,2013-01-17 06:58:00,
2013-01-16 23:03:00,55.8,18.6,30.26,North,355,6.0,11.0,23,0.00,,---,0.00,VWS V14.00,2013-01-17 07:03:00,
2013-01-16 23:08:00,56.4,18.0,30.26,North,355,6.0,10.0,22,0.00,,---,0.00,VWS V14.00,2013-01-17 07:08:00,
2013-01-16 23:13:00,57.1,17.6,30.26,North,355,5.0,14.0,21,0.00,,---,0.00,VWS V14.00,2013-01-17 07:13:00,
2013-01-16 23:18:00,58.3,17.4,30.26,North,355,4.0,7.0,20,0.00,,---,0.00,VWS V14.00,2013-01-17 07:18:00,
2013-01-16 23:23:00,58.3,17.4,30.26,North,355,6.0,7.0,20,0.00,,---,0.00,VWS V14.00,2013-01-17 07:23:00,
2013-01-16 23:28:00,58.4,17.5,30.26,North,355,1.0,5.0,20,0.00,,---,0.00,VWS V14.00,2013-01-17 07:28:00,
2013-01-16 23:33:00,58.1,17.3,30.26,North,355,3.0,5.0,20,0.00,,---,0.00,VWS V14.00,2013-01-17 07:33:00,
2013-01-16 23:38:00,56.6,17.1,30.26,North,355,4.0,6.0,21,0.00,,---,0.00,VWS V14.00,2013-01-17 07:38:00,
2013-01-16 23:43:00,56.3,18.0,30.26,North,355,4.0,5.0,22,0.00,,---,0.00,VWS V14.00,2013-01-17 07:43:00,
2013-01-16 23:48:00,57.2,17.6,30.26,North,355,10.0,12.0,21,0.00,,---,0.00,VWS V14.00,2013-01-17 07:48:00,
2013-01-16 23:53:00,59.4,17.1,30.26,North,355,2.0,5.0,19,0.00,,---,0.00,VWS V14.00,2013-01-17 07:53:00,
2013-01-16 23:58:00,60.0,17.6,30.26,North,355,3.0,5.0,19,0.00,,---,0.00,VWS V14.00,2013-01-17 07:58:00,